createdAt,value
2018-08-28T00:01:23.277Z,7.78
2018-08-28T00:03:51.668Z,7.55
2018-08-28T00:06:19.852Z,8.83
2018-08-28T00:08:48.112Z,8.18
2018-08-28T00:11:16.313Z,7.87
2018-08-28T00:13:44.360Z,7.65
2018-08-28T00:16:12.408Z,6.53
2018-08-28T00:18:40.479Z,6.70
2018-08-28T00:21:08.535Z,6.67
2018-08-28T00:23:36.577Z,6.80
2018-08-28T00:26:04.609Z,9.73
2018-08-28T00:28:32.644Z,8.65
2018-08-28T00:31:00.704Z,8.63
2018-08-28T00:33:28.771Z,6.28
2018-08-28T00:35:56.838Z,7.75
2018-08-28T00:38:24.871Z,5.92
2018-08-28T00:40:52.960Z,10.43
2018-08-28T00:43:20.978Z,8.18
2018-08-28T00:45:49.004Z,6.35
2018-08-28T00:48:17.032Z,6.70
2018-08-28T00:50:45.081Z,7.30
2018-08-28T00:53:13.117Z,8.65
2018-08-28T00:55:41.160Z,4.73
2018-08-28T00:58:09.203Z,5.12
2018-08-28T01:00:37.245Z,5.92
2018-08-28T01:03:05.433Z,7.67
2018-08-28T01:05:33.453Z,6.80
2018-08-28T01:08:01.481Z,8.90
2018-08-28T01:10:29.522Z,7.83
2018-08-28T01:12:57.844Z,8.88
2018-08-28T01:15:25.860Z,7.35
2018-08-28T01:17:53.903Z,7.53
2018-08-28T01:20:21.935Z,5.87
2018-08-28T01:22:49.973Z,7.97
2018-08-28T01:25:18.012Z,9.85
2018-08-28T01:27:46.091Z,8.33
2018-08-28T01:30:14.124Z,7.80
2018-08-28T01:32:42.133Z,9.03
2018-08-28T01:35:10.171Z,7.37
2018-08-28T01:37:38.192Z,6.25
2018-08-28T01:40:06.264Z,9.30
2018-08-28T01:42:34.319Z,8.38
2018-08-28T01:45:02.358Z,6.12
2018-08-28T01:47:30.385Z,7.80
2018-08-28T01:49:58.457Z,7.70
2018-08-28T01:52:26.491Z,7.10
2018-08-28T01:54:54.551Z,6.90
2018-08-28T01:57:22.560Z,7.05
2018-08-28T01:59:50.612Z,5.55
2018-08-28T02:02:18.628Z,7.53
2018-08-28T02:04:46.655Z,5.60
2018-08-28T02:07:14.677Z,7.35
2018-08-28T02:09:42.716Z,7.28
2018-08-28T02:12:10.755Z,8.35
2018-08-28T02:14:38.787Z,6.57
2018-08-28T02:17:06.808Z,8.68
2018-08-28T02:19:34.901Z,8.30
2018-08-28T02:22:02.952Z,7.60
2018-08-28T02:24:30.976Z,6.03
2018-08-28T02:26:58.992Z,7.05
2018-08-28T02:29:27.035Z,8.58
2018-08-28T02:31:55.055Z,7.78
2018-08-28T02:34:23.086Z,6.50
2018-08-28T02:36:51.096Z,6.08
2018-08-28T02:39:19.145Z,5.83
2018-08-28T02:41:47.172Z,7.37
2018-08-28T02:44:15.216Z,8.20
2018-08-28T02:46:43.242Z,8.20
2018-08-28T02:49:11.311Z,6.22
2018-08-28T02:51:39.356Z,8.20
2018-08-28T02:54:07.389Z,8.70
2018-08-28T02:56:35.405Z,7.47
2018-08-28T02:59:03.451Z,7.58
2018-08-28T03:01:31.484Z,9.00
2018-08-28T03:03:59.515Z,7.72
2018-08-28T03:06:27.560Z,6.78
2018-08-28T03:08:55.597Z,6.90
2018-08-28T03:11:23.681Z,7.03
2018-08-28T03:13:51.668Z,6.72
2018-08-28T03:16:19.737Z,6.72
2018-08-28T03:18:47.747Z,6.92
2018-08-28T03:21:15.781Z,6.12
2018-08-28T03:23:43.813Z,8.40
2018-08-28T03:26:11.855Z,6.50
2018-08-28T03:28:40.121Z,7.25
2018-08-28T03:31:08.181Z,8.15
2018-08-28T03:33:36.228Z,6.33
2018-08-28T03:36:04.268Z,6.58
2018-08-28T03:38:32.617Z,6.72
2018-08-28T03:41:00.644Z,6.60
2018-08-28T03:43:28.675Z,5.85
2018-08-28T03:45:56.721Z,7.30
2018-08-28T03:48:24.978Z,7.62
2018-08-28T03:50:53.016Z,7.25
2018-08-28T03:53:21.333Z,7.72
2018-08-28T03:55:49.500Z,5.70
2018-08-28T03:58:17.536Z,5.70
2018-08-28T04:00:45.637Z,8.93
2018-08-28T04:03:13.660Z,7.22
2018-08-28T04:05:41.705Z,7.13
2018-08-28T04:08:09.725Z,7.17
2018-08-28T04:10:37.743Z,7.33
2018-08-28T04:13:06.064Z,8.58
2018-08-28T04:15:34.103Z,7.25
2018-08-28T04:18:02.160Z,8.40
2018-08-28T04:20:30.212Z,9.38
2018-08-28T04:22:58.248Z,9.50
2018-08-28T04:25:26.285Z,7.87
2018-08-28T04:27:54.321Z,8.10
2018-08-28T04:30:22.374Z,7.72
2018-08-28T04:32:50.436Z,8.60
2018-08-28T04:35:18.452Z,8.65
2018-08-28T04:37:46.485Z,8.53
2018-08-28T04:40:14.577Z,9.43
2018-08-28T04:42:42.600Z,8.27
2018-08-28T04:45:10.612Z,8.15
2018-08-28T04:47:38.670Z,8.53
2018-08-28T04:50:06.856Z,7.47
2018-08-28T04:52:35.180Z,8.48
2018-08-28T04:55:03.298Z,8.83
2018-08-28T04:57:31.308Z,9.00
2018-08-28T04:59:59.324Z,8.70
2018-08-28T05:02:32.660Z,9.15
2018-08-28T05:05:00.836Z,9.87
2018-08-28T05:07:28.892Z,7.78
2018-08-28T05:09:56.953Z,9.40
2018-08-28T05:12:24.982Z,7.95
2018-08-28T05:14:53.036Z,8.20
2018-08-28T05:17:21.091Z,7.37
2018-08-28T05:19:49.136Z,9.50
2018-08-28T05:22:17.188Z,19.05
2018-08-28T05:24:45.209Z,9.38
2018-08-28T05:27:13.311Z,9.65
2018-08-28T05:29:41.396Z,9.88
2018-08-28T05:32:09.376Z,8.50
2018-08-28T05:34:37.417Z,8.53
2018-08-28T05:37:05.460Z,12.63
2018-08-28T05:39:33.537Z,9.38
2018-08-28T05:42:01.581Z,10.30
2018-08-28T05:44:29.612Z,10.05
2018-08-28T05:46:57.690Z,9.00
2018-08-28T05:49:25.838Z,11.85
2018-08-28T05:51:53.864Z,13.50
2018-08-28T05:54:21.908Z,10.48
2018-08-28T05:56:49.978Z,11.50
2018-08-28T05:59:18.029Z,11.78
2018-08-28T06:01:46.093Z,8.83
2018-08-28T06:04:14.129Z,9.10
2018-08-28T06:06:42.187Z,10.03
2018-08-28T06:09:10.239Z,10.75
2018-08-28T06:11:38.293Z,21.30
2018-08-28T06:14:06.335Z,18.32
2018-08-28T06:16:34.378Z,11.25
2018-08-28T06:19:03.112Z,8.88
2018-08-28T06:21:31.224Z,17.05
2018-08-28T06:23:59.281Z,14.38
2018-08-28T06:26:27.365Z,28.30
2018-08-28T06:28:55.390Z,9.93
2018-08-28T06:31:23.476Z,8.15
2018-08-28T06:33:51.559Z,9.35
2018-08-28T06:36:19.566Z,17.60
2018-08-28T06:38:47.661Z,16.00
2018-08-28T06:41:15.700Z,9.68
2018-08-28T06:43:43.848Z,10.78
2018-08-28T06:46:11.818Z,9.07
2018-08-28T06:48:39.853Z,12.58
2018-08-28T06:51:07.924Z,11.20
2018-08-28T06:53:35.973Z,10.30
2018-08-28T06:56:04.008Z,9.55
2018-08-28T06:58:32.074Z,12.57
2018-08-28T07:01:00.124Z,9.80
2018-08-28T07:03:28.182Z,12.70
2018-08-28T07:05:56.239Z,15.28
2018-08-28T07:08:24.293Z,10.40
2018-08-28T07:10:52.339Z,9.73
2018-08-28T07:13:20.377Z,10.32
2018-08-28T07:15:48.424Z,8.90
2018-08-28T07:18:16.457Z,12.58
2018-08-28T07:20:44.505Z,12.05
2018-08-28T07:23:12.548Z,9.18
2018-08-28T07:25:40.658Z,9.48
2018-08-28T07:28:08.655Z,9.50
2018-08-28T07:30:36.808Z,13.03
2018-08-28T07:33:04.848Z,11.00
2018-08-28T07:35:32.897Z,10.28
2018-08-28T07:38:00.928Z,8.95
2018-08-28T07:40:29.009Z,8.63
2018-08-28T07:42:57.103Z,9.30
2018-08-28T07:45:25.076Z,9.50
2018-08-28T07:47:53.168Z,9.80
2018-08-28T07:50:21.191Z,9.70
2018-08-28T07:52:49.225Z,8.23
2018-08-28T07:55:17.277Z,7.67
2018-08-28T07:57:45.348Z,9.20
2018-08-28T08:00:13.392Z,8.73
2018-08-28T08:02:41.421Z,9.75
2018-08-28T08:05:09.449Z,7.30
2018-08-28T08:07:37.476Z,8.93
2018-08-28T08:10:05.795Z,9.85
2018-08-28T08:12:33.847Z,17.48
2018-08-28T08:15:01.878Z,8.45
2018-08-28T08:17:29.936Z,8.05
2018-08-28T08:19:57.969Z,8.85
2018-08-28T08:22:26.041Z,10.58
2018-08-28T08:24:54.072Z,7.03
2018-08-28T08:27:22.116Z,7.23
2018-08-28T08:29:50.172Z,8.03
2018-08-28T08:32:18.218Z,6.70
2018-08-28T08:34:46.286Z,9.45
2018-08-28T08:37:14.328Z,6.70
2018-08-28T08:39:42.408Z,7.97
2018-08-28T08:42:10.478Z,7.43
2018-08-28T08:44:38.477Z,5.50
2018-08-28T08:47:06.527Z,5.90
2018-08-28T08:49:34.589Z,6.90
2018-08-28T08:52:02.644Z,9.30
2018-08-28T08:54:30.716Z,22.50
2018-08-28T08:56:58.791Z,11.67
2018-08-28T08:59:26.841Z,5.97
2018-08-28T09:01:54.904Z,7.22
2018-08-28T09:04:23.024Z,5.72
2018-08-28T09:06:51.062Z,6.50
2018-08-28T09:09:19.089Z,3.90
2018-08-28T09:11:47.124Z,10.43
2018-08-28T09:14:15.189Z,7.78
2018-08-28T09:16:43.249Z,8.68
2018-08-28T09:19:11.317Z,5.60
2018-08-28T09:21:39.348Z,6.72
2018-08-28T09:24:07.452Z,5.28
2018-08-28T09:26:35.472Z,3.60
2018-08-28T09:29:03.549Z,5.30
2018-08-28T09:31:31.604Z,3.75
2018-08-28T09:33:59.604Z,3.50
2018-08-28T09:36:27.665Z,3.25
2018-08-28T09:38:55.745Z,3.40
2018-08-28T09:41:23.773Z,3.95
2018-08-28T09:43:51.795Z,4.53
2018-08-28T09:46:19.825Z,3.37
2018-08-28T09:48:47.880Z,4.27
2018-08-28T09:51:15.916Z,4.85
2018-08-28T09:53:43.937Z,3.60
2018-08-28T09:56:11.961Z,3.80
2018-08-28T09:58:40.333Z,4.40
2018-08-28T10:01:13.702Z,4.70
2018-08-28T10:03:41.755Z,3.92
2018-08-28T10:06:09.793Z,6.35
2018-08-28T10:08:38.063Z,4.50
2018-08-28T10:11:06.272Z,4.35
2018-08-28T10:13:34.153Z,4.80
2018-08-28T10:16:02.187Z,3.80
2018-08-28T10:18:30.204Z,3.92
2018-08-28T10:20:58.229Z,4.75
2018-08-28T10:23:26.432Z,3.98
2018-08-28T10:25:54.526Z,2.83
2018-08-28T10:28:22.548Z,3.37
2018-08-28T10:30:50.573Z,5.33
2018-08-28T10:33:18.756Z,3.90
2018-08-28T10:35:46.766Z,3.05
2018-08-28T10:38:14.888Z,3.92
2018-08-28T10:43:33.812Z,3.55
2018-08-28T10:46:01.833Z,3.30
2018-08-28T10:48:29.914Z,3.10
2018-08-28T10:50:57.992Z,3.60
2018-08-28T10:53:26.036Z,2.20
2018-08-28T10:55:54.256Z,2.75
2018-08-28T10:58:22.304Z,3.23
2018-08-28T11:00:50.376Z,4.20
2018-08-28T11:03:18.418Z,4.17
2018-08-28T11:05:46.684Z,3.30
2018-08-28T11:08:14.724Z,3.50
2018-08-28T11:10:42.819Z,2.80
2018-08-28T11:13:10.918Z,3.47
2018-08-28T11:15:39.005Z,3.40
2018-08-28T11:18:07.144Z,3.93
2018-08-28T11:20:35.205Z,2.90
2018-08-28T11:23:03.290Z,3.87
2018-08-28T11:25:31.260Z,3.80
2018-08-28T11:27:59.340Z,3.80
2018-08-28T11:30:27.527Z,3.12
2018-08-28T11:32:55.765Z,3.92
2018-08-28T11:35:24.043Z,5.05
2018-08-28T11:37:52.056Z,4.97
2018-08-28T11:40:20.124Z,3.52
2018-08-28T11:42:48.156Z,4.70
2018-08-28T11:45:16.204Z,4.25
2018-08-28T11:47:44.244Z,3.40
2018-08-28T11:50:12.316Z,3.58
2018-08-28T11:52:40.417Z,3.50
2018-08-28T11:55:08.505Z,3.60
2018-08-28T11:57:36.536Z,3.10
2018-08-28T12:00:04.745Z,3.10
2018-08-28T12:02:32.824Z,4.42
2018-08-28T12:05:00.948Z,3.98
2018-08-28T12:07:29.053Z,2.98
2018-08-28T12:09:57.005Z,5.33
2018-08-28T12:12:25.043Z,5.70
2018-08-28T12:14:53.120Z,8.35
2018-08-28T12:17:21.209Z,3.83
2018-08-28T12:19:49.259Z,4.25
2018-08-28T12:22:17.311Z,4.33
2018-08-28T12:24:45.350Z,4.80
2018-08-28T12:27:13.400Z,4.30
2018-08-28T12:29:41.467Z,5.30
2018-08-28T12:32:09.500Z,6.55
2018-08-28T12:34:37.570Z,5.70
2018-08-28T12:37:05.668Z,15.48
2018-08-28T12:39:33.680Z,6.50
2018-08-28T12:42:01.748Z,5.97
2018-08-28T12:44:29.791Z,3.40
2018-08-28T12:46:57.857Z,4.80
2018-08-28T12:49:25.884Z,4.30
2018-08-28T12:51:53.900Z,5.80
2018-08-28T12:54:21.939Z,11.17
2018-08-28T12:56:49.993Z,4.90
2018-08-28T12:59:18.012Z,4.83
2018-08-28T13:01:46.049Z,4.75
2018-08-28T13:04:14.089Z,5.10
2018-08-28T13:06:42.140Z,5.45
2018-08-28T13:09:10.168Z,4.03
2018-08-28T13:11:38.231Z,4.25
2018-08-28T13:14:06.288Z,5.15
2018-08-28T13:16:34.344Z,5.45
2018-08-28T13:19:02.375Z,4.37
2018-08-28T13:21:30.436Z,4.20
2018-08-28T13:23:58.503Z,4.05
2018-08-28T13:26:26.516Z,4.20
2018-08-28T13:28:54.567Z,7.03
2018-08-28T13:31:22.632Z,5.20
2018-08-28T13:33:50.691Z,5.08
2018-08-28T13:36:18.770Z,7.10
2018-08-28T13:38:46.833Z,7.58
2018-08-28T13:41:14.874Z,5.08
2018-08-28T13:43:42.925Z,5.72
2018-08-28T13:46:10.944Z,6.43
2018-08-28T13:48:39.012Z,6.00
2018-08-28T13:51:07.056Z,6.60
2018-08-28T13:53:35.176Z,5.78
2018-08-28T13:56:03.105Z,5.40
2018-08-28T13:58:31.196Z,5.40
2018-08-28T14:00:59.233Z,6.17
2018-08-28T14:03:27.287Z,7.03
2018-08-28T14:05:55.315Z,5.45
2018-08-28T14:08:23.424Z,6.83
2018-08-28T14:10:51.468Z,6.47
2018-08-28T14:13:19.624Z,5.05
2018-08-28T14:15:47.557Z,6.15
2018-08-28T14:18:15.603Z,5.90
2018-08-28T14:20:43.644Z,5.60
2018-08-28T14:23:11.680Z,6.83
2018-08-28T14:25:39.707Z,5.73
2018-08-28T14:28:07.774Z,5.23
2018-08-28T14:30:35.812Z,5.03
2018-08-28T14:33:03.861Z,4.60
2018-08-28T14:35:31.987Z,5.33
2018-08-28T14:38:00.017Z,5.22
2018-08-28T14:40:28.118Z,4.33
2018-08-28T14:42:56.149Z,5.28
2018-08-28T14:45:24.212Z,4.83
2018-08-28T14:47:52.255Z,5.22
2018-08-28T14:50:20.413Z,4.40
2018-08-28T14:52:48.353Z,6.03
2018-08-28T14:55:16.384Z,4.50
2018-08-28T14:57:44.439Z,5.25
2018-08-28T15:00:12.489Z,5.20
2018-08-28T15:02:40.512Z,5.78
2018-08-28T15:05:08.551Z,5.78
2018-08-28T15:07:36.605Z,5.45
2018-08-28T15:10:04.675Z,7.12
2018-08-28T15:12:32.715Z,6.30
2018-08-28T15:15:00.780Z,5.27
2018-08-28T15:17:28.833Z,4.70
2018-08-28T15:19:56.880Z,6.12
2018-08-28T15:22:24.910Z,6.35
2018-08-28T15:24:52.972Z,5.95
2018-08-28T15:27:21.066Z,7.15
2018-08-28T15:29:48.996Z,5.92
2018-08-28T15:32:17.036Z,7.10
2018-08-28T15:34:45.059Z,6.40
2018-08-28T15:37:13.134Z,5.37
2018-08-28T15:39:41.160Z,4.80
2018-08-28T15:42:09.222Z,5.62
2018-08-28T15:44:37.244Z,5.80
2018-08-28T15:47:05.520Z,5.28
2018-08-28T15:49:33.572Z,4.90
2018-08-28T15:52:01.629Z,4.65
2018-08-28T15:54:29.665Z,6.87
2018-08-28T15:56:57.696Z,5.10
2018-08-28T15:59:25.734Z,5.95
2018-08-28T16:01:53.791Z,6.08
2018-08-28T16:04:21.928Z,8.27
2018-08-28T16:06:51.409Z,6.77
2018-08-28T16:09:19.497Z,5.20
2018-08-28T16:11:47.972Z,4.85
2018-08-28T16:14:16.034Z,7.47
2018-08-28T16:16:45.149Z,4.90
2018-08-28T16:19:13.182Z,4.70
2018-08-28T16:21:44.136Z,8.78
2018-08-28T16:24:12.152Z,4.90
2018-08-28T16:26:40.380Z,6.45
2018-08-28T16:29:08.781Z,5.50
2018-08-28T16:31:36.824Z,5.97
2018-08-28T16:34:06.024Z,6.53
2018-08-28T16:36:33.980Z,5.30
2018-08-28T16:39:01.998Z,4.80
2018-08-28T16:41:30.062Z,5.20
2018-08-28T16:43:58.116Z,6.70
2018-08-28T16:46:26.176Z,6.30
2018-08-28T16:48:54.228Z,6.08
2018-08-28T16:51:22.260Z,5.42
2018-08-28T16:53:50.321Z,7.20
2018-08-28T16:56:18.453Z,5.28
2018-08-28T16:58:46.517Z,6.07
2018-08-28T17:01:14.600Z,6.77
2018-08-28T17:03:42.576Z,6.40
2018-08-28T17:06:10.596Z,5.60
2018-08-28T17:08:38.833Z,5.90
2018-08-28T17:11:06.900Z,6.53
2018-08-28T17:13:34.941Z,6.33
2018-08-28T17:16:02.998Z,7.55
2018-08-28T17:18:31.324Z,7.10
2018-08-28T17:20:59.365Z,5.60
2018-08-28T17:23:27.540Z,5.80
2018-08-28T17:25:55.646Z,6.35
2018-08-28T17:28:23.688Z,5.90
2018-08-28T17:30:51.717Z,6.35
2018-08-28T17:33:20.106Z,5.80
2018-08-28T17:35:48.054Z,5.33
2018-08-28T17:38:16.092Z,5.33
2018-08-28T17:40:44.193Z,5.30
2018-08-28T17:43:12.248Z,6.83
2018-08-28T17:45:40.349Z,6.05
2018-08-28T17:48:08.383Z,5.97
2018-08-28T17:50:36.429Z,8.03
2018-08-28T17:53:04.453Z,6.70
2018-08-28T17:55:32.495Z,5.35
2018-08-28T17:58:00.649Z,6.15
2018-08-28T18:00:28.682Z,6.00
2018-08-28T18:02:56.740Z,7.62
2018-08-28T18:05:24.780Z,7.87
2018-08-28T18:07:52.812Z,6.87
2018-08-28T18:10:20.881Z,6.33
2018-08-28T18:12:48.933Z,6.17
2018-08-28T18:15:16.972Z,6.35
2018-08-28T18:17:45.000Z,7.47
2018-08-28T18:20:13.016Z,7.60
2018-08-28T18:22:41.085Z,6.65
2018-08-28T18:25:09.163Z,7.85
2018-08-28T18:27:37.249Z,8.43
2018-08-28T18:30:05.633Z,7.37
2018-08-28T18:32:33.728Z,7.45
2018-08-28T18:35:01.865Z,9.68
2018-08-28T18:37:29.940Z,8.93
2018-08-28T18:39:58.001Z,9.10
2018-08-28T18:42:26.091Z,5.50
2018-08-28T18:44:54.173Z,4.75
2018-08-28T18:47:22.192Z,7.50
2018-08-28T18:49:50.264Z,7.92
2018-08-28T18:52:18.345Z,6.75
2018-08-28T18:54:46.441Z,6.30
2018-08-28T18:57:14.485Z,5.50
2018-08-28T18:59:42.512Z,5.17
2018-08-28T19:02:10.573Z,6.33
2018-08-28T19:04:38.636Z,5.97
2018-08-28T19:07:06.719Z,9.48
2018-08-28T19:09:34.788Z,8.45
2018-08-28T19:12:02.856Z,7.20
2018-08-28T19:14:30.983Z,6.37
2018-08-28T19:16:59.079Z,6.70
2018-08-28T19:19:27.100Z,6.67
2018-08-28T19:21:55.145Z,7.83
2018-08-28T19:24:23.191Z,8.00
2018-08-28T19:26:51.225Z,6.50
2018-08-28T19:29:19.274Z,9.93
2018-08-28T19:31:47.403Z,7.10
2018-08-28T19:34:15.462Z,10.30
2018-08-28T19:36:43.498Z,5.95
2018-08-28T19:39:11.557Z,5.43
2018-08-28T19:41:39.590Z,6.83
2018-08-28T19:44:07.639Z,5.42
2018-08-28T19:46:35.684Z,6.62
2018-08-28T19:49:03.727Z,8.25
2018-08-28T19:51:31.827Z,6.20
2018-08-28T19:53:59.880Z,5.72
2018-08-28T19:56:28.009Z,5.42
2018-08-28T19:58:56.077Z,6.62
2018-08-28T20:01:24.098Z,7.00
2018-08-28T20:03:52.143Z,6.42
2018-08-28T20:06:20.220Z,8.53
2018-08-28T20:08:48.278Z,8.85
2018-08-28T20:11:16.303Z,5.83
2018-08-28T20:13:44.389Z,8.48
2018-08-28T20:16:12.436Z,7.90
2018-08-28T20:18:40.477Z,5.97
2018-08-28T20:21:08.524Z,8.95
2018-08-28T20:23:36.579Z,6.97
2018-08-28T20:26:04.644Z,6.22
2018-08-28T20:28:32.701Z,7.75
2018-08-28T20:31:00.813Z,7.90
2018-08-28T20:33:28.829Z,10.30
2018-08-28T20:35:56.872Z,7.80
2018-08-28T20:38:24.924Z,6.35
2018-08-28T20:40:52.968Z,8.78
2018-08-28T20:43:21.016Z,6.25
2018-08-28T20:45:49.069Z,5.62
2018-08-28T20:48:17.123Z,5.10
2018-08-28T20:50:46.005Z,7.85
2018-08-28T20:53:14.070Z,6.87
2018-08-28T20:55:42.076Z,6.83
2018-08-28T20:58:10.146Z,8.05
2018-08-28T21:00:38.160Z,5.67
2018-08-28T21:03:06.890Z,6.15
2018-08-28T21:05:34.900Z,6.90
2018-08-28T21:08:02.936Z,6.60
2018-08-28T21:10:31.290Z,7.17
2018-08-28T21:12:59.811Z,5.12
2018-08-28T21:15:27.716Z,5.70
2018-08-28T21:17:55.761Z,5.55
2018-08-28T21:20:23.795Z,6.10
2018-08-28T21:22:51.888Z,6.45
2018-08-28T21:25:19.887Z,6.83
2018-08-28T21:27:47.936Z,5.08
2018-08-28T21:30:15.975Z,8.88
2018-08-28T21:32:44.008Z,6.25
2018-08-28T21:35:12.038Z,8.60
2018-08-28T21:37:40.100Z,8.85
2018-08-28T21:40:08.120Z,7.37
2018-08-28T21:42:36.168Z,7.50
2018-08-28T21:45:04.224Z,6.80
2018-08-28T21:47:32.268Z,6.55
2018-08-28T21:50:00.302Z,7.78
2018-08-28T21:52:28.336Z,8.30
2018-08-28T21:54:56.382Z,5.67
2018-08-28T21:57:24.404Z,5.83
2018-08-28T21:59:52.495Z,6.72
2018-08-28T22:02:20.540Z,8.83
2018-08-28T22:04:48.617Z,7.83
2018-08-28T22:07:22.188Z,6.42
2018-08-28T22:09:50.213Z,6.10
2018-08-28T22:12:18.248Z,7.60
2018-08-28T22:14:46.328Z,7.33
2018-08-28T22:17:14.372Z,6.25
2018-08-28T22:19:42.425Z,8.30
2018-08-28T22:22:10.460Z,6.17
2018-08-28T22:24:38.503Z,8.73
2018-08-28T22:27:06.580Z,5.90
2018-08-28T22:29:34.628Z,7.92
2018-08-28T22:32:02.760Z,8.05
2018-08-28T22:34:30.930Z,7.95
2018-08-28T22:36:59.024Z,6.10
2018-08-28T22:39:27.073Z,6.22
2018-08-28T22:41:55.112Z,6.20
2018-08-28T22:44:23.156Z,6.05
2018-08-28T22:46:51.189Z,7.53
2018-08-28T22:49:19.229Z,7.72
2018-08-28T22:51:47.272Z,6.97
2018-08-28T22:54:15.391Z,8.10
2018-08-28T22:56:43.372Z,6.37
2018-08-28T22:59:11.413Z,7.72
2018-08-28T23:01:39.460Z,7.80
2018-08-28T23:04:07.492Z,7.72
2018-08-28T23:06:35.526Z,8.58
2018-08-28T23:09:04.628Z,7.25
2018-08-28T23:11:32.685Z,8.65
2018-08-28T23:14:00.726Z,8.45
2018-08-28T23:16:28.769Z,7.95
2018-08-28T23:18:56.793Z,8.23
2018-08-28T23:21:24.828Z,9.00
2018-08-28T23:23:52.852Z,8.18
2018-08-28T23:26:20.901Z,7.40
2018-08-28T23:28:48.940Z,8.73
2018-08-28T23:31:17.601Z,7.87
2018-08-28T23:33:45.664Z,8.75
2018-08-28T23:36:13.699Z,7.95
2018-08-28T23:38:41.880Z,8.13
2018-08-28T23:41:09.876Z,8.03
2018-08-28T23:43:37.923Z,11.03
2018-08-28T23:46:05.975Z,8.90
2018-08-28T23:48:34.009Z,7.72
2018-08-28T23:51:02.041Z,8.43
2018-08-28T23:53:30.064Z,9.53
2018-08-28T23:55:58.087Z,9.50
2018-08-28T23:58:26.104Z,10.80
